sensor_id;sensor_type;location;lat;lon;timestamp;temperature;humidity
29295;DHT22;16305;48.566;8.846;2023-04-03T00:01:32;2.70;99.90
29295;DHT22;16305;48.566;8.846;2023-04-03T00:03:58;2.60;99.90
29295;DHT22;16305;48.566;8.846;2023-04-03T00:06:24;2.70;99.90
29295;DHT22;16305;48.566;8.846;2023-04-03T00:08:50;2.70;99.90
29295;DHT22;16305;48.566;8.846;2023-04-03T00:11:16;2.70;99.90
29295;DHT22;16305;48.566;8.846;2023-04-03T00:13:42;2.70;99.90
29295;DHT22;16305;48.566;8.846;2023-04-03T00:16:09;2.70;99.90
29295;DHT22;16305;48.566;8.846;2023-04-03T00:18:35;2.80;99.90
29295;DHT22;16305;48.566;8.846;2023-04-03T00:21:01;2.80;99.90
29295;DHT22;16305;48.566;8.846;2023-04-03T00:23:26;2.80;99.90
29295;DHT22;16305;48.566;8.846;2023-04-03T00:25:53;2.80;99.90
29295;DHT22;16305;48.566;8.846;2023-04-03T00:28:19;2.80;99.90
29295;DHT22;16305;48.566;8.846;2023-04-03T00:30:45;2.90;99.90
29295;DHT22;16305;48.566;8.846;2023-04-03T00:33:14;3.00;99.90
29295;DHT22;16305;48.566;8.846;2023-04-03T00:35:40;3.00;99.90
29295;DHT22;16305;48.566;8.846;2023-04-03T00:38:05;3.00;99.90
29295;DHT22;16305;48.566;8.846;2023-04-03T00:40:36;2.90;99.90
29295;DHT22;16305;48.566;8.846;2023-04-03T00:43:02;2.90;99.90
29295;DHT22;16305;48.566;8.846;2023-04-03T00:45:32;2.90;99.90
29295;DHT22;16305;48.566;8.846;2023-04-03T00:48:00;2.90;99.90
29295;DHT22;16305;48.566;8.846;2023-04-03T00:50:28;2.80;99.90
29295;DHT22;16305;48.566;8.846;2023-04-03T00:52:54;2.70;99.90
29295;DHT22;16305;48.566;8.846;2023-04-03T00:55:20;2.80;99.90
29295;DHT22;16305;48.566;8.846;2023-04-03T00:57:46;2.80;99.90
29295;DHT22;16305;48.566;8.846;2023-04-03T01:00:15;2.90;99.90
29295;DHT22;16305;48.566;8.846;2023-04-03T01:02:42;2.90;99.90
29295;DHT22;16305;48.566;8.846;2023-04-03T01:05:08;2.80;99.90
29295;DHT22;16305;48.566;8.846;2023-04-03T01:07:34;2.80;99.90
29295;DHT22;16305;48.566;8.846;2023-04-03T01:10:05;2.80;99.90
29295;DHT22;16305;48.566;8.846;2023-04-03T01:12:34;2.90;99.90
29295;DHT22;16305;48.566;8.846;2023-04-03T01:15:22;2.80;99.90
29295;DHT22;16305;48.566;8.846;2023-04-03T01:17:56;2.80;99.90
29295;DHT22;16305;48.566;8.846;2023-04-03T01:23:11;2.50;99.90
29295;DHT22;16305;48.566;8.846;2023-04-03T01:28:18;2.60;99.90
29295;DHT22;16305;48.566;8.846;2023-04-03T01:33:30;2.60;99.90
29295;DHT22;16305;48.566;8.846;2023-04-03T01:35:56;2.50;99.90
29295;DHT22;16305;48.566;8.846;2023-04-03T01:38:21;2.60;99.90
29295;DHT22;16305;48.566;8.846;2023-04-03T01:40:47;2.50;99.90
29295;DHT22;16305;48.566;8.846;2023-04-03T01:43:13;2.50;99.90
29295;DHT22;16305;48.566;8.846;2023-04-03T01:45:38;2.50;99.90
29295;DHT22;16305;48.566;8.846;2023-04-03T01:48:04;2.50;99.90
29295;DHT22;16305;48.566;8.846;2023-04-03T01:50:30;2.50;99.90
29295;DHT22;16305;48.566;8.846;2023-04-03T01:52:55;2.40;99.90
29295;DHT22;16305;48.566;8.846;2023-04-03T01:55:21;2.40;99.90
29295;DHT22;16305;48.566;8.846;2023-04-03T01:57:46;2.40;99.90
29295;DHT22;16305;48.566;8.846;2023-04-03T02:00:13;2.40;99.90
29295;DHT22;16305;48.566;8.846;2023-04-03T02:02:39;2.40;99.90
29295;DHT22;16305;48.566;8.846;2023-04-03T02:05:04;2.30;99.90
29295;DHT22;16305;48.566;8.846;2023-04-03T02:07:30;2.30;99.90
29295;DHT22;16305;48.566;8.846;2023-04-03T02:09:56;2.30;99.90
29295;DHT22;16305;48.566;8.846;2023-04-03T02:12:21;2.30;99.90
29295;DHT22;16305;48.566;8.846;2023-04-03T02:14:47;2.30;99.90
29295;DHT22;16305;48.566;8.846;2023-04-03T02:17:12;2.30;99.90
29295;DHT22;16305;48.566;8.846;2023-04-03T02:19:38;2.20;99.90
29295;DHT22;16305;48.566;8.846;2023-04-03T02:22:05;2.20;99.90
29295;DHT22;16305;48.566;8.846;2023-04-03T02:24:31;2.20;99.90
29295;DHT22;16305;48.566;8.846;2023-04-03T02:26:56;2.20;99.90
29295;DHT22;16305;48.566;8.846;2023-04-03T02:29:22;2.20;99.90
29295;DHT22;16305;48.566;8.846;2023-04-03T02:31:49;2.20;99.90
29295;DHT22;16305;48.566;8.846;2023-04-03T02:34:14;2.20;99.90
29295;DHT22;16305;48.566;8.846;2023-04-03T02:36:40;2.10;99.90
29295;DHT22;16305;48.566;8.846;2023-04-03T02:39:05;2.10;99.90
29295;DHT22;16305;48.566;8.846;2023-04-03T02:41:31;2.10;99.90
29295;DHT22;16305;48.566;8.846;2023-04-03T02:44:05;2.10;99.90
29295;DHT22;16305;48.566;8.846;2023-04-03T02:46:31;2.10;99.90
29295;DHT22;16305;48.566;8.846;2023-04-03T02:48:56;2.10;99.90
29295;DHT22;16305;48.566;8.846;2023-04-03T02:51:22;2.10;99.90
29295;DHT22;16305;48.566;8.846;2023-04-03T02:53:51;2.10;99.90
29295;DHT22;16305;48.566;8.846;2023-04-03T02:56:17;2.20;99.90
29295;DHT22;16305;48.566;8.846;2023-04-03T02:58:43;2.10;99.90
29295;DHT22;16305;48.566;8.846;2023-04-03T03:01:10;2.20;99.90
29295;DHT22;16305;48.566;8.846;2023-04-03T03:03:35;2.20;99.90
29295;DHT22;16305;48.566;8.846;2023-04-03T03:06:09;2.10;99.90
29295;DHT22;16305;48.566;8.846;2023-04-03T03:08:35;2.10;99.90
29295;DHT22;16305;48.566;8.846;2023-04-03T03:11:01;2.20;99.90
29295;DHT22;16305;48.566;8.846;2023-04-03T03:13:27;2.20;99.90
29295;DHT22;16305;48.566;8.846;2023-04-03T03:15:52;2.20;99.90
29295;DHT22;16305;48.566;8.846;2023-04-03T03:18:18;2.10;99.90
29295;DHT22;16305;48.566;8.846;2023-04-03T03:20:44;2.10;99.90
29295;DHT22;16305;48.566;8.846;2023-04-03T03:23:09;2.10;99.90
29295;DHT22;16305;48.566;8.846;2023-04-03T03:25:39;2.20;99.90
29295;DHT22;16305;48.566;8.846;2023-04-03T03:28:05;2.10;99.90
29295;DHT22;16305;48.566;8.846;2023-04-03T03:30:31;2.00;99.90
29295;DHT22;16305;48.566;8.846;2023-04-03T03:32:56;2.00;99.90
29295;DHT22;16305;48.566;8.846;2023-04-03T03:35:22;2.00;99.90
29295;DHT22;16305;48.566;8.846;2023-04-03T03:37:47;2.00;99.90
29295;DHT22;16305;48.566;8.846;2023-04-03T03:40:13;2.00;99.90
29295;DHT22;16305;48.566;8.846;2023-04-03T03:42:39;2.00;99.90
29295;DHT22;16305;48.566;8.846;2023-04-03T03:45:05;2.00;99.90
29295;DHT22;16305;48.566;8.846;2023-04-03T03:47:30;1.90;99.90
29295;DHT22;16305;48.566;8.846;2023-04-03T03:49:56;1.90;99.90
29295;DHT22;16305;48.566;8.846;2023-04-03T03:52:21;1.90;99.90
29295;DHT22;16305;48.566;8.846;2023-04-03T03:54:47;1.90;99.90
29295;DHT22;16305;48.566;8.846;2023-04-03T03:57:12;1.90;99.90
29295;DHT22;16305;48.566;8.846;2023-04-03T03:59:38;1.90;99.90
29295;DHT22;16305;48.566;8.846;2023-04-03T04:02:05;1.90;99.90
29295;DHT22;16305;48.566;8.846;2023-04-03T04:04:31;2.00;99.90
29295;DHT22;16305;48.566;8.846;2023-04-03T04:06:56;2.00;99.90
29295;DHT22;16305;48.566;8.846;2023-04-03T04:09:22;2.00;99.90
29295;DHT22;16305;48.566;8.846;2023-04-03T04:11:47;1.90;99.90
29295;DHT22;16305;48.566;8.846;2023-04-03T04:14:13;2.00;99.90
29295;DHT22;16305;48.566;8.846;2023-04-03T04:16:38;2.00;99.90
29295;DHT22;16305;48.566;8.846;2023-04-03T04:19:04;2.00;99.90
29295;DHT22;16305;48.566;8.846;2023-04-03T04:21:30;2.00;99.90
29295;DHT22;16305;48.566;8.846;2023-04-03T04:23:55;2.00;99.90
29295;DHT22;16305;48.566;8.846;2023-04-03T04:26:21;2.00;99.90
29295;DHT22;16305;48.566;8.846;2023-04-03T04:28:46;2.00;99.90
29295;DHT22;16305;48.566;8.846;2023-04-03T04:31:12;2.00;99.90
29295;DHT22;16305;48.566;8.846;2023-04-03T04:33:37;2.00;99.90
29295;DHT22;16305;48.566;8.846;2023-04-03T04:36:03;2.00;99.90
29295;DHT22;16305;48.566;8.846;2023-04-03T04:38:28;2.00;99.90
29295;DHT22;16305;48.566;8.846;2023-04-03T04:40:54;2.00;99.90
29295;DHT22;16305;48.566;8.846;2023-04-03T04:43:19;2.00;99.90
29295;DHT22;16305;48.566;8.846;2023-04-03T04:45:45;2.00;99.90
29295;DHT22;16305;48.566;8.846;2023-04-03T04:48:11;1.90;99.90
29295;DHT22;16305;48.566;8.846;2023-04-03T04:50:36;1.90;99.90
29295;DHT22;16305;48.566;8.846;2023-04-03T04:53:02;1.90;99.90
29295;DHT22;16305;48.566;8.846;2023-04-03T04:55:27;1.90;99.90
29295;DHT22;16305;48.566;8.846;2023-04-03T04:57:53;1.90;99.90
29295;DHT22;16305;48.566;8.846;2023-04-03T05:00:18;1.90;99.90
29295;DHT22;16305;48.566;8.846;2023-04-03T05:02:44;1.90;99.90
29295;DHT22;16305;48.566;8.846;2023-04-03T05:05:10;1.90;99.90
29295;DHT22;16305;48.566;8.846;2023-04-03T05:07:35;1.90;99.90
29295;DHT22;16305;48.566;8.846;2023-04-03T05:10:02;2.00;99.90
29295;DHT22;16305;48.566;8.846;2023-04-03T05:12:28;1.90;99.90
29295;DHT22;16305;48.566;8.846;2023-04-03T05:14:53;1.90;99.90
29295;DHT22;16305;48.566;8.846;2023-04-03T05:17:19;2.00;99.90
29295;DHT22;16305;48.566;8.846;2023-04-03T05:19:44;2.00;99.90
29295;DHT22;16305;48.566;8.846;2023-04-03T05:22:10;2.00;99.90
29295;DHT22;16305;48.566;8.846;2023-04-03T05:24:36;2.00;99.90
29295;DHT22;16305;48.566;8.846;2023-04-03T05:27:01;2.00;99.90
29295;DHT22;16305;48.566;8.846;2023-04-03T05:29:27;2.00;99.90
29295;DHT22;16305;48.566;8.846;2023-04-03T05:31:52;2.00;99.90
29295;DHT22;16305;48.566;8.846;2023-04-03T05:34:18;2.00;99.90
29295;DHT22;16305;48.566;8.846;2023-04-03T05:36:43;2.00;99.90
29295;DHT22;16305;48.566;8.846;2023-04-03T05:39:09;2.00;99.90
29295;DHT22;16305;48.566;8.846;2023-04-03T05:41:34;2.00;99.90
29295;DHT22;16305;48.566;8.846;2023-04-03T05:44:00;2.00;99.90
29295;DHT22;16305;48.566;8.846;2023-04-03T05:46:26;2.10;99.90
29295;DHT22;16305;48.566;8.846;2023-04-03T05:48:51;2.10;99.90
29295;DHT22;16305;48.566;8.846;2023-04-03T05:51:20;2.10;99.90
29295;DHT22;16305;48.566;8.846;2023-04-03T05:53:47;2.10;99.90
29295;DHT22;16305;48.566;8.846;2023-04-03T05:56:13;2.20;99.90
29295;DHT22;16305;48.566;8.846;2023-04-03T05:58:39;2.20;99.90
29295;DHT22;16305;48.566;8.846;2023-04-03T06:01:04;2.30;99.90
29295;DHT22;16305;48.566;8.846;2023-04-03T06:03:31;2.40;99.90
29295;DHT22;16305;48.566;8.846;2023-04-03T06:05:56;2.50;99.90
29295;DHT22;16305;48.566;8.846;2023-04-03T06:08:22;2.50;99.90
29295;DHT22;16305;48.566;8.846;2023-04-03T06:10:49;2.50;99.90
29295;DHT22;16305;48.566;8.846;2023-04-03T06:13:15;2.50;99.90
29295;DHT22;16305;48.566;8.846;2023-04-03T06:15:41;2.60;99.90
29295;DHT22;16305;48.566;8.846;2023-04-03T06:18:07;2.50;99.90
29295;DHT22;16305;48.566;8.846;2023-04-03T06:20:33;2.60;99.90
29295;DHT22;16305;48.566;8.846;2023-04-03T06:22:59;2.70;99.90
29295;DHT22;16305;48.566;8.846;2023-04-03T06:25:24;2.70;99.90
29295;DHT22;16305;48.566;8.846;2023-04-03T06:27:50;2.70;99.90
29295;DHT22;16305;48.566;8.846;2023-04-03T06:30:16;2.80;99.90
29295;DHT22;16305;48.566;8.846;2023-04-03T06:32:41;2.80;99.90
29295;DHT22;16305;48.566;8.846;2023-04-03T06:35:08;2.90;99.90
29295;DHT22;16305;48.566;8.846;2023-04-03T06:37:34;2.90;99.90
29295;DHT22;16305;48.566;8.846;2023-04-03T06:40:00;2.90;99.90
29295;DHT22;16305;48.566;8.846;2023-04-03T06:42:25;3.00;99.90
29295;DHT22;16305;48.566;8.846;2023-04-03T06:44:51;3.00;99.90
29295;DHT22;16305;48.566;8.846;2023-04-03T06:47:17;3.10;99.90
29295;DHT22;16305;48.566;8.846;2023-04-03T06:49:43;3.00;99.90
29295;DHT22;16305;48.566;8.846;2023-04-03T06:52:09;3.00;99.90
29295;DHT22;16305;48.566;8.846;2023-04-03T06:54:35;3.10;99.90
29295;DHT22;16305;48.566;8.846;2023-04-03T06:57:01;3.10;99.90
29295;DHT22;16305;48.566;8.846;2023-04-03T06:59:27;3.10;99.90
29295;DHT22;16305;48.566;8.846;2023-04-03T07:01:52;3.10;99.90
29295;DHT22;16305;48.566;8.846;2023-04-03T07:04:18;3.10;99.90
29295;DHT22;16305;48.566;8.846;2023-04-03T07:06:45;3.00;99.90
29295;DHT22;16305;48.566;8.846;2023-04-03T07:09:12;3.10;99.90
29295;DHT22;16305;48.566;8.846;2023-04-03T07:11:38;3.00;99.90
29295;DHT22;16305;48.566;8.846;2023-04-03T07:14:03;3.00;99.90
29295;DHT22;16305;48.566;8.846;2023-04-03T07:16:29;2.90;99.90
29295;DHT22;16305;48.566;8.846;2023-04-03T07:18:57;3.00;99.90
29295;DHT22;16305;48.566;8.846;2023-04-03T07:21:24;3.00;99.90
29295;DHT22;16305;48.566;8.846;2023-04-03T07:23:49;3.00;99.90
29295;DHT22;16305;48.566;8.846;2023-04-03T07:26:15;3.00;99.90
29295;DHT22;16305;48.566;8.846;2023-04-03T07:28:41;3.10;99.90
29295;DHT22;16305;48.566;8.846;2023-04-03T07:31:08;3.10;99.90
29295;DHT22;16305;48.566;8.846;2023-04-03T07:33:36;3.20;99.90
29295;DHT22;16305;48.566;8.846;2023-04-03T07:36:03;3.20;99.90
29295;DHT22;16305;48.566;8.846;2023-04-03T07:38:29;3.20;99.90
29295;DHT22;16305;48.566;8.846;2023-04-03T07:40:54;3.30;99.90
29295;DHT22;16305;48.566;8.846;2023-04-03T07:43:21;3.30;99.90
29295;DHT22;16305;48.566;8.846;2023-04-03T07:45:48;3.40;99.90
29295;DHT22;16305;48.566;8.846;2023-04-03T07:48:18;3.60;99.90
29295;DHT22;16305;48.566;8.846;2023-04-03T07:50:43;3.60;99.90
29295;DHT22;16305;48.566;8.846;2023-04-03T07:53:09;3.60;99.90
29295;DHT22;16305;48.566;8.846;2023-04-03T07:55:35;3.60;99.90
29295;DHT22;16305;48.566;8.846;2023-04-03T07:58:11;3.60;99.90
29295;DHT22;16305;48.566;8.846;2023-04-03T08:00:38;3.70;99.90
29295;DHT22;16305;48.566;8.846;2023-04-03T08:03:04;3.70;99.90
29295;DHT22;16305;48.566;8.846;2023-04-03T08:05:30;3.80;99.90
29295;DHT22;16305;48.566;8.846;2023-04-03T08:07:55;3.70;99.90
29295;DHT22;16305;48.566;8.846;2023-04-03T08:10:21;3.80;99.90
29295;DHT22;16305;48.566;8.846;2023-04-03T08:12:47;3.90;99.90
29295;DHT22;16305;48.566;8.846;2023-04-03T08:15:13;3.90;99.90
29295;DHT22;16305;48.566;8.846;2023-04-03T08:17:39;3.90;99.90
29295;DHT22;16305;48.566;8.846;2023-04-03T08:20:07;3.90;99.90
29295;DHT22;16305;48.566;8.846;2023-04-03T08:22:33;4.00;99.90
29295;DHT22;16305;48.566;8.846;2023-04-03T08:24:59;4.10;99.90
29295;DHT22;16305;48.566;8.846;2023-04-03T08:27:25;4.10;99.90
29295;DHT22;16305;48.566;8.846;2023-04-03T08:29:52;4.00;99.90
29295;DHT22;16305;48.566;8.846;2023-04-03T08:32:17;4.10;99.90
29295;DHT22;16305;48.566;8.846;2023-04-03T08:34:43;4.10;99.90
29295;DHT22;16305;48.566;8.846;2023-04-03T08:37:09;4.20;99.90
29295;DHT22;16305;48.566;8.846;2023-04-03T08:39:35;4.20;99.90
29295;DHT22;16305;48.566;8.846;2023-04-03T08:42:05;4.20;99.90
29295;DHT22;16305;48.566;8.846;2023-04-03T08:44:41;4.30;99.90
29295;DHT22;16305;48.566;8.846;2023-04-03T08:47:23;4.50;99.90
29295;DHT22;16305;48.566;8.846;2023-04-03T08:49:56;4.60;99.90
29295;DHT22;16305;48.566;8.846;2023-04-03T08:52:42;4.70;99.90
29295;DHT22;16305;48.566;8.846;2023-04-03T08:55:27;4.70;99.90
29295;DHT22;16305;48.566;8.846;2023-04-03T08:58:05;4.70;99.90
29295;DHT22;16305;48.566;8.846;2023-04-03T09:00:44;4.90;99.90
29295;DHT22;16305;48.566;8.846;2023-04-03T09:03:16;4.90;99.90
29295;DHT22;16305;48.566;8.846;2023-04-03T09:11:34;4.80;99.90
29295;DHT22;16305;48.566;8.846;2023-04-03T09:16:53;5.00;99.90
29295;DHT22;16305;48.566;8.846;2023-04-03T09:19:35;5.10;99.90
29295;DHT22;16305;48.566;8.846;2023-04-03T09:22:25;5.00;99.90
29295;DHT22;16305;48.566;8.846;2023-04-03T09:25:14;5.00;99.90
29295;DHT22;16305;48.566;8.846;2023-04-03T09:27:40;4.90;99.90
29295;DHT22;16305;48.566;8.846;2023-04-03T09:30:13;5.00;99.90
29295;DHT22;16305;48.566;8.846;2023-04-03T09:32:39;4.80;99.90
29295;DHT22;16305;48.566;8.846;2023-04-03T09:37:54;4.90;99.90
29295;DHT22;16305;48.566;8.846;2023-04-03T09:40:30;4.90;99.90
29295;DHT22;16305;48.566;8.846;2023-04-03T09:42:59;4.90;99.90
29295;DHT22;16305;48.566;8.846;2023-04-03T09:45:30;5.00;99.90
29295;DHT22;16305;48.566;8.846;2023-04-03T09:50:55;4.90;99.90
29295;DHT22;16305;48.566;8.846;2023-04-03T09:55:53;4.80;99.90
29295;DHT22;16305;48.566;8.846;2023-04-03T09:58:29;4.80;99.90
29295;DHT22;16305;48.566;8.846;2023-04-03T10:01:00;4.80;99.90
29295;DHT22;16305;48.566;8.846;2023-04-03T10:03:33;4.60;99.90
29295;DHT22;16305;48.566;8.846;2023-04-03T10:06:22;4.70;99.90
29295;DHT22;16305;48.566;8.846;2023-04-03T10:09:13;4.80;99.90
29295;DHT22;16305;48.566;8.846;2023-04-03T10:12:06;4.90;99.90
29295;DHT22;16305;48.566;8.846;2023-04-03T10:14:38;4.90;99.90
29295;DHT22;16305;48.566;8.846;2023-04-03T10:25:35;4.70;99.90
29295;DHT22;16305;48.566;8.846;2023-04-03T10:28:35;4.60;99.90
29295;DHT22;16305;48.566;8.846;2023-04-03T10:31:11;4.50;99.90
29295;DHT22;16305;48.566;8.846;2023-04-03T10:34:11;4.60;99.90
29295;DHT22;16305;48.566;8.846;2023-04-03T10:36:48;4.70;99.90
29295;DHT22;16305;48.566;8.846;2023-04-03T10:39:40;4.80;99.90
29295;DHT22;16305;48.566;8.846;2023-04-03T10:50:49;5.30;99.90
29295;DHT22;16305;48.566;8.846;2023-04-03T10:53:28;5.20;99.90
29295;DHT22;16305;48.566;8.846;2023-04-03T10:58:38;5.00;99.90
29295;DHT22;16305;48.566;8.846;2023-04-03T11:01:27;5.00;99.90
29295;DHT22;16305;48.566;8.846;2023-04-03T11:03:57;5.20;99.90
29295;DHT22;16305;48.566;8.846;2023-04-03T11:06:26;5.00;99.90
29295;DHT22;16305;48.566;8.846;2023-04-03T11:09:07;4.80;99.90
29295;DHT22;16305;48.566;8.846;2023-04-03T11:11:39;4.90;99.90
29295;DHT22;16305;48.566;8.846;2023-04-03T11:16:43;5.10;99.90
29295;DHT22;16305;48.566;8.846;2023-04-03T11:19:21;5.20;99.90
29295;DHT22;16305;48.566;8.846;2023-04-03T11:22:10;5.20;99.90
29295;DHT22;16305;48.566;8.846;2023-04-03T11:24:41;5.10;99.90
29295;DHT22;16305;48.566;8.846;2023-04-03T11:27:17;5.00;99.90
29295;DHT22;16305;48.566;8.846;2023-04-03T11:29:48;4.90;99.90
29295;DHT22;16305;48.566;8.846;2023-04-03T11:35:30;5.20;99.90
29295;DHT22;16305;48.566;8.846;2023-04-03T11:37:57;5.20;99.90
29295;DHT22;16305;48.566;8.846;2023-04-03T11:40:29;5.20;99.90
29295;DHT22;16305;48.566;8.846;2023-04-03T11:47:58;5.60;99.90
29295;DHT22;16305;48.566;8.846;2023-04-03T11:58:24;5.20;99.90
29295;DHT22;16305;48.566;8.846;2023-04-03T12:21:15;5.60;99.90
29295;DHT22;16305;48.566;8.846;2023-04-03T12:37:40;5.40;99.90
29295;DHT22;16305;48.566;8.846;2023-04-03T12:40:55;5.50;99.90
29295;DHT22;16305;48.566;8.846;2023-04-03T12:45:53;5.50;99.90
29295;DHT22;16305;48.566;8.846;2023-04-03T12:48:26;5.50;99.90
29295;DHT22;16305;48.566;8.846;2023-04-03T12:50:52;5.60;99.90
29295;DHT22;16305;48.566;8.846;2023-04-03T12:53:35;5.50;99.90
29295;DHT22;16305;48.566;8.846;2023-04-03T12:56:40;5.50;99.90
29295;DHT22;16305;48.566;8.846;2023-04-03T12:59:24;5.70;99.90
29295;DHT22;16305;48.566;8.846;2023-04-03T13:01:58;5.50;99.90
29295;DHT22;16305;48.566;8.846;2023-04-03T13:04:24;5.40;99.90
29295;DHT22;16305;48.566;8.846;2023-04-03T13:06:50;5.40;99.90
29295;DHT22;16305;48.566;8.846;2023-04-03T13:09:30;5.40;99.90
29295;DHT22;16305;48.566;8.846;2023-04-03T13:12:02;5.40;99.90
29295;DHT22;16305;48.566;8.846;2023-04-03T13:14:29;5.40;99.90
29295;DHT22;16305;48.566;8.846;2023-04-03T13:17:10;5.30;99.90
29295;DHT22;16305;48.566;8.846;2023-04-03T13:19:37;5.30;99.90
29295;DHT22;16305;48.566;8.846;2023-04-03T13:22:07;5.30;99.90
29295;DHT22;16305;48.566;8.846;2023-04-03T13:24:37;5.30;99.90
29295;DHT22;16305;48.566;8.846;2023-04-03T13:27:04;5.30;99.90
29295;DHT22;16305;48.566;8.846;2023-04-03T13:29:36;5.30;99.90
29295;DHT22;16305;48.566;8.846;2023-04-03T13:32:04;5.20;99.90
29295;DHT22;16305;48.566;8.846;2023-04-03T13:34:42;5.30;99.90
29295;DHT22;16305;48.566;8.846;2023-04-03T13:37:26;5.40;99.90
29295;DHT22;16305;48.566;8.846;2023-04-03T13:40:04;5.60;99.90
29295;DHT22;16305;48.566;8.846;2023-04-03T13:42:38;5.70;99.90
29295;DHT22;16305;48.566;8.846;2023-04-03T13:45:27;5.60;99.90
29295;DHT22;16305;48.566;8.846;2023-04-03T13:48:11;5.40;99.90
29295;DHT22;16305;48.566;8.846;2023-04-03T13:51:02;5.30;99.90
29295;DHT22;16305;48.566;8.846;2023-04-03T13:53:30;5.30;99.90
29295;DHT22;16305;48.566;8.846;2023-04-03T13:56:04;5.30;99.90
29295;DHT22;16305;48.566;8.846;2023-04-03T13:58:31;5.30;99.90
29295;DHT22;16305;48.566;8.846;2023-04-03T14:01:08;5.20;99.90
29295;DHT22;16305;48.566;8.846;2023-04-03T14:06:08;5.30;99.90
29295;DHT22;16305;48.566;8.846;2023-04-03T14:08:34;5.30;99.90
29295;DHT22;16305;48.566;8.846;2023-04-03T14:11:00;5.30;99.90
29295;DHT22;16305;48.566;8.846;2023-04-03T14:13:26;5.30;99.90
29295;DHT22;16305;48.566;8.846;2023-04-03T14:15:51;5.40;99.90
29295;DHT22;16305;48.566;8.846;2023-04-03T14:18:19;5.40;99.90
29295;DHT22;16305;48.566;8.846;2023-04-03T14:20:47;5.50;99.90
29295;DHT22;16305;48.566;8.846;2023-04-03T14:23:12;5.70;99.90
29295;DHT22;16305;48.566;8.846;2023-04-03T14:25:39;5.60;99.90
29295;DHT22;16305;48.566;8.846;2023-04-03T14:28:17;5.60;99.90
29295;DHT22;16305;48.566;8.846;2023-04-03T14:30:44;5.60;99.90
29295;DHT22;16305;48.566;8.846;2023-04-03T14:33:14;5.60;99.90
29295;DHT22;16305;48.566;8.846;2023-04-03T14:35:40;5.60;99.90
29295;DHT22;16305;48.566;8.846;2023-04-03T14:38:23;5.50;99.90
29295;DHT22;16305;48.566;8.846;2023-04-03T14:40:49;5.30;99.90
29295;DHT22;16305;48.566;8.846;2023-04-03T14:43:15;5.20;99.90
29295;DHT22;16305;48.566;8.846;2023-04-03T14:45:41;5.20;99.90
29295;DHT22;16305;48.566;8.846;2023-04-03T14:48:15;5.20;99.90
29295;DHT22;16305;48.566;8.846;2023-04-03T14:50:42;5.20;99.90
29295;DHT22;16305;48.566;8.846;2023-04-03T14:53:07;5.20;99.90
29295;DHT22;16305;48.566;8.846;2023-04-03T14:55:35;5.20;99.90
29295;DHT22;16305;48.566;8.846;2023-04-03T14:58:01;5.20;99.90
29295;DHT22;16305;48.566;8.846;2023-04-03T15:00:27;5.20;99.90
29295;DHT22;16305;48.566;8.846;2023-04-03T15:02:52;5.40;99.90
29295;DHT22;16305;48.566;8.846;2023-04-03T15:05:18;5.40;99.90
29295;DHT22;16305;48.566;8.846;2023-04-03T15:07:52;5.30;99.90
29295;DHT22;16305;48.566;8.846;2023-04-03T15:10:21;5.30;99.90
29295;DHT22;16305;48.566;8.846;2023-04-03T15:12:48;5.30;99.90
29295;DHT22;16305;48.566;8.846;2023-04-03T15:15:14;5.40;99.90
29295;DHT22;16305;48.566;8.846;2023-04-03T15:17:41;5.40;99.90
29295;DHT22;16305;48.566;8.846;2023-04-03T15:20:16;5.40;99.90
29295;DHT22;16305;48.566;8.846;2023-04-03T15:22:42;5.30;99.90
29295;DHT22;16305;48.566;8.846;2023-04-03T15:25:09;5.40;99.90
29295;DHT22;16305;48.566;8.846;2023-04-03T15:27:35;5.50;99.90
29295;DHT22;16305;48.566;8.846;2023-04-03T15:30:01;5.60;99.90
29295;DHT22;16305;48.566;8.846;2023-04-03T15:32:27;5.60;99.90
29295;DHT22;16305;48.566;8.846;2023-04-03T15:34:54;5.50;99.90
29295;DHT22;16305;48.566;8.846;2023-04-03T15:37:19;5.50;99.90
29295;DHT22;16305;48.566;8.846;2023-04-03T15:39:45;5.40;99.90
29295;DHT22;16305;48.566;8.846;2023-04-03T15:42:10;5.10;99.90
29295;DHT22;16305;48.566;8.846;2023-04-03T15:44:37;5.10;99.90
29295;DHT22;16305;48.566;8.846;2023-04-03T15:47:03;5.10;99.90
29295;DHT22;16305;48.566;8.846;2023-04-03T15:49:29;5.10;99.90
29295;DHT22;16305;48.566;8.846;2023-04-03T15:51:55;5.10;99.90
29295;DHT22;16305;48.566;8.846;2023-04-03T15:54:20;5.20;99.90
29295;DHT22;16305;48.566;8.846;2023-04-03T15:56:46;5.10;99.90
29295;DHT22;16305;48.566;8.846;2023-04-03T15:59:11;5.00;99.90
29295;DHT22;16305;48.566;8.846;2023-04-03T16:01:38;5.20;99.90
29295;DHT22;16305;48.566;8.846;2023-04-03T16:04:05;5.90;99.90
29295;DHT22;16305;48.566;8.846;2023-04-03T16:06:32;6.40;99.90
29295;DHT22;16305;48.566;8.846;2023-04-03T16:08:59;6.30;99.90
29295;DHT22;16305;48.566;8.846;2023-04-03T16:11:26;5.80;99.90
29295;DHT22;16305;48.566;8.846;2023-04-03T16:13:52;5.60;99.90
29295;DHT22;16305;48.566;8.846;2023-04-03T16:16:18;5.30;99.90
29295;DHT22;16305;48.566;8.846;2023-04-03T16:18:44;5.30;99.90
29295;DHT22;16305;48.566;8.846;2023-04-03T16:21:12;5.30;99.90
29295;DHT22;16305;48.566;8.846;2023-04-03T16:23:39;5.20;99.90
29295;DHT22;16305;48.566;8.846;2023-04-03T16:26:05;5.20;99.90
29295;DHT22;16305;48.566;8.846;2023-04-03T16:28:30;5.10;99.90
29295;DHT22;16305;48.566;8.846;2023-04-03T16:30:56;5.00;99.90
29295;DHT22;16305;48.566;8.846;2023-04-03T16:33:22;4.90;99.90
29295;DHT22;16305;48.566;8.846;2023-04-03T16:35:48;5.00;99.90
29295;DHT22;16305;48.566;8.846;2023-04-03T16:38:14;5.10;99.90
29295;DHT22;16305;48.566;8.846;2023-04-03T16:40:40;5.10;99.90
29295;DHT22;16305;48.566;8.846;2023-04-03T16:43:07;5.10;99.90
29295;DHT22;16305;48.566;8.846;2023-04-03T16:45:32;5.10;99.90
29295;DHT22;16305;48.566;8.846;2023-04-03T16:47:58;5.10;99.90
29295;DHT22;16305;48.566;8.846;2023-04-03T16:50:23;5.00;99.90
29295;DHT22;16305;48.566;8.846;2023-04-03T16:52:49;4.80;99.90
29295;DHT22;16305;48.566;8.846;2023-04-03T16:55:15;4.80;99.90
29295;DHT22;16305;48.566;8.846;2023-04-03T16:57:40;4.70;99.90
29295;DHT22;16305;48.566;8.846;2023-04-03T17:00:07;4.70;99.90
29295;DHT22;16305;48.566;8.846;2023-04-03T17:02:33;4.70;99.90
29295;DHT22;16305;48.566;8.846;2023-04-03T17:04:59;4.60;99.90
29295;DHT22;16305;48.566;8.846;2023-04-03T17:07:25;4.60;99.90
29295;DHT22;16305;48.566;8.846;2023-04-03T17:09:51;4.50;99.90
29295;DHT22;16305;48.566;8.846;2023-04-03T17:12:18;4.40;99.90
29295;DHT22;16305;48.566;8.846;2023-04-03T17:14:44;4.40;99.90
29295;DHT22;16305;48.566;8.846;2023-04-03T17:17:12;4.40;99.90
29295;DHT22;16305;48.566;8.846;2023-04-03T17:19:38;4.40;99.90
29295;DHT22;16305;48.566;8.846;2023-04-03T17:22:04;4.50;99.90
29295;DHT22;16305;48.566;8.846;2023-04-03T17:24:30;4.50;99.90
29295;DHT22;16305;48.566;8.846;2023-04-03T17:26:56;4.50;99.90
29295;DHT22;16305;48.566;8.846;2023-04-03T17:29:21;4.50;99.90
29295;DHT22;16305;48.566;8.846;2023-04-03T17:31:47;4.50;99.90
29295;DHT22;16305;48.566;8.846;2023-04-03T17:34:12;4.40;99.90
29295;DHT22;16305;48.566;8.846;2023-04-03T17:36:38;4.40;99.90